createdAt,value
2022-11-02T00:01:46.336Z,99.90
2022-11-02T00:06:49.965Z,99.90
2022-11-02T00:11:53.626Z,99.90
2022-11-02T00:45:54.754Z,99.90
2022-11-02T00:50:59.110Z,99.90
2022-11-02T00:56:05.977Z,99.90
2022-11-02T01:01:11.225Z,99.90
2022-11-02T01:06:16.799Z,99.90
2022-11-02T01:11:22.172Z,99.90
2022-11-02T01:16:28.890Z,99.90
2022-11-02T01:21:32.409Z,99.90
2022-11-02T01:26:36.054Z,99.90
2022-11-02T01:31:41.034Z,99.90
2022-11-02T01:36:45.820Z,99.90
2022-11-02T01:41:52.672Z,99.90
2022-11-02T01:47:01.921Z,99.90
2022-11-02T01:52:09.493Z,99.90
2022-11-02T01:57:16.670Z,99.90
2022-11-02T02:02:28.164Z,99.90
2022-11-02T02:07:33.028Z,99.90
2022-11-02T02:12:39.269Z,99.90
2022-11-02T02:17:50.584Z,99.90
2022-11-02T02:23:20.536Z,99.90
2022-11-02T02:28:34.550Z,99.90
2022-11-02T02:33:47.538Z,99.90
2022-11-02T02:38:59.908Z,99.90
2022-11-02T02:44:08.850Z,99.90
2022-11-02T02:49:20.170Z,99.90
2022-11-02T02:54:27.231Z,99.90
2022-11-02T02:59:33.997Z,99.90
2022-11-02T03:04:37.829Z,99.90
2022-11-02T03:09:46.395Z,99.90
2022-11-02T03:15:05.163Z,99.90
2022-11-02T03:20:22.874Z,99.90
2022-11-02T03:25:31.660Z,99.90
2022-11-02T03:30:45.896Z,99.90
2022-11-02T03:35:58.059Z,99.90
2022-11-02T03:41:05.015Z,99.80
2022-11-02T03:46:12.014Z,99.80
2022-11-02T03:51:21.004Z,99.80
2022-11-02T03:56:31.075Z,99.90
2022-11-02T04:01:43.045Z,99.60
2022-11-02T04:06:49.328Z,99.60
2022-11-02T04:12:11.949Z,99.50
2022-11-02T04:17:34.694Z,99.50
2022-11-02T04:22:59.636Z,99.50
2022-11-02T04:28:08.867Z,99.60
2022-11-02T04:33:34.683Z,99.70
2022-11-02T04:38:56.580Z,99.40
2022-11-02T04:44:08.862Z,99.60
2022-11-02T04:49:15.462Z,99.70
2022-11-02T04:54:19.308Z,99.60
2022-11-02T04:59:26.954Z,99.60
2022-11-02T05:04:32.273Z,99.60
2022-11-02T05:09:36.083Z,99.40
2022-11-02T05:14:41.754Z,99.40
2022-11-02T05:19:47.049Z,99.60
2022-11-02T05:24:50.786Z,99.60
2022-11-02T05:29:55.020Z,99.60
2022-11-02T05:35:01.083Z,99.20
2022-11-02T05:40:08.727Z,99.50
2022-11-02T05:45:13.689Z,99.50
2022-11-02T05:50:18.884Z,99.30
2022-11-02T05:55:22.909Z,99.20
2022-11-02T06:00:26.560Z,99.40
2022-11-02T06:05:31.686Z,99.50
2022-11-02T06:10:35.426Z,99.50
2022-11-02T06:15:39.049Z,99.80
2022-11-02T06:20:44.143Z,99.70
2022-11-02T06:25:53.190Z,99.70
2022-11-02T06:30:57.197Z,99.50
2022-11-02T06:36:02.281Z,99.80
2022-11-02T06:41:06.868Z,99.90
2022-11-02T06:46:13.191Z,99.90
2022-11-02T06:51:18.270Z,99.90
2022-11-02T06:56:21.873Z,99.90
2022-11-02T07:01:25.578Z,99.90
2022-11-02T07:06:30.667Z,99.90
2022-11-02T07:11:34.252Z,99.80
2022-11-02T07:16:38.011Z,99.80
2022-11-02T07:21:46.568Z,99.90
2022-11-02T07:26:51.887Z,99.90
2022-11-02T07:31:55.874Z,99.90
2022-11-02T07:37:00.948Z,99.90
2022-11-02T07:47:13.488Z,99.90
2022-11-02T07:52:18.618Z,99.90
2022-11-02T07:57:22.292Z,99.90
2022-11-02T08:02:26.174Z,99.90
2022-11-02T08:07:31.264Z,99.90
2022-11-02T08:12:35.133Z,99.90
2022-11-02T08:17:38.768Z,99.90
2022-11-02T08:22:43.768Z,99.90
2022-11-02T08:27:47.452Z,99.90
2022-11-02T08:32:56.324Z,99.90
2022-11-02T08:38:02.443Z,99.90
2022-11-02T08:43:08.330Z,99.90
2022-11-02T08:48:11.985Z,99.90
2022-11-02T08:53:17.145Z,99.90
2022-11-02T08:58:20.813Z,99.90
2022-11-02T09:03:27.152Z,99.30
2022-11-02T09:08:33.347Z,97.20
2022-11-02T09:13:38.619Z,97.30
2022-11-02T09:18:42.352Z,97.10
2022-11-02T09:23:48.494Z,95.10
2022-11-02T09:28:52.171Z,96.50
2022-11-02T09:33:55.824Z,97.30
2022-11-02T09:39:00.791Z,95.00
2022-11-02T09:44:10.214Z,94.90
2022-11-02T09:49:17.443Z,94.90
2022-11-02T09:54:24.577Z,94.70
2022-11-02T09:59:28.615Z,93.60
2022-11-02T10:04:52.439Z,93.60
2022-11-02T10:10:00.794Z,92.80
2022-11-02T10:15:09.960Z,94.10
2022-11-02T10:20:23.793Z,93.90
2022-11-02T10:25:29.002Z,93.90
2022-11-02T10:30:33.969Z,93.80
2022-11-02T10:36:12.558Z,93.40
2022-11-02T10:41:34.065Z,94.00
2022-11-02T10:46:50.228Z,94.00
2022-11-02T10:51:53.906Z,93.90
2022-11-02T10:57:00.202Z,93.80
2022-11-02T11:02:13.525Z,94.00
2022-11-02T11:07:22.230Z,93.80
2022-11-02T11:12:33.017Z,94.10
2022-11-02T11:23:16.700Z,93.80
2022-11-02T11:28:26.145Z,93.40
2022-11-02T11:33:31.349Z,93.60
2022-11-02T11:38:35.188Z,93.80
2022-11-02T11:43:41.703Z,94.00
2022-11-02T11:48:49.794Z,93.90
2022-11-02T11:54:18.743Z,93.80
2022-11-02T11:59:29.698Z,93.10
2022-11-02T12:04:37.559Z,92.00
2022-11-02T12:09:51.249Z,93.10
2022-11-02T12:15:10.224Z,92.10
2022-11-02T12:20:21.075Z,93.20
2022-11-02T12:25:41.504Z,93.40
2022-11-02T12:30:59.077Z,92.50
2022-11-02T12:36:27.208Z,92.50
2022-11-02T12:41:42.121Z,91.20
2022-11-02T12:46:59.112Z,91.50
2022-11-02T12:52:07.583Z,91.70
2022-11-02T12:57:15.552Z,91.20
2022-11-02T13:02:25.432Z,91.50
2022-11-02T13:07:34.427Z,91.70
2022-11-02T13:12:38.818Z,91.90
2022-11-02T13:17:47.107Z,91.90
2022-11-02T13:22:57.594Z,91.70
2022-11-02T13:28:06.112Z,91.70
2022-11-02T13:33:18.517Z,92.10
2022-11-02T13:38:30.740Z,92.20
2022-11-02T13:43:57.760Z,91.80
2022-11-02T13:49:04.638Z,92.00
2022-11-02T13:54:14.694Z,92.00
2022-11-02T13:59:22.609Z,91.80
2022-11-02T14:04:30.729Z,92.10
2022-11-02T14:09:38.741Z,92.50
2022-11-02T14:14:42.464Z,92.50
2022-11-02T14:19:56.404Z,92.40
2022-11-02T14:25:16.675Z,92.40
2022-11-02T14:30:48.851Z,92.50
2022-11-02T14:36:01.322Z,92.60
2022-11-02T14:41:25.308Z,92.80
2022-11-02T14:46:49.155Z,92.80
2022-11-02T14:52:04.548Z,92.80
2022-11-02T14:57:20.349Z,93.00
2022-11-02T15:02:28.601Z,93.00
2022-11-02T15:07:38.429Z,92.90
2022-11-02T15:12:43.719Z,92.90
2022-11-02T15:17:59.613Z,92.80
2022-11-02T15:23:31.256Z,92.70
2022-11-02T15:28:36.290Z,92.50
2022-11-02T15:33:43.932Z,93.00
2022-11-02T15:38:52.286Z,92.80
2022-11-02T15:44:27.438Z,92.50
2022-11-02T15:49:48.982Z,92.40
2022-11-02T15:55:10.830Z,92.00
2022-11-02T16:00:19.360Z,91.60
2022-11-02T16:05:25.547Z,91.90
2022-11-02T16:10:34.580Z,92.00
2022-11-02T16:15:42.288Z,92.00
2022-11-02T16:20:46.817Z,92.20
2022-11-02T16:25:54.356Z,92.30
2022-11-02T16:31:08.110Z,92.20
2022-11-02T16:36:18.571Z,92.20
2022-11-02T16:41:25.869Z,92.30
2022-11-02T16:46:32.073Z,92.70
2022-11-02T16:51:35.818Z,92.50
2022-11-02T16:56:40.920Z,92.50
2022-11-02T17:01:45.582Z,92.50
2022-11-02T17:06:51.555Z,92.80
2022-11-02T17:11:59.046Z,92.70
2022-11-02T17:17:06.042Z,92.80
2022-11-02T17:22:11.540Z,92.90
2022-11-02T17:27:25.907Z,92.90
2022-11-02T17:32:29.926Z,92.90
2022-11-02T17:37:33.955Z,93.00
2022-11-02T17:42:56.514Z,92.80
2022-11-02T17:48:02.153Z,92.90
2022-11-02T17:53:07.326Z,92.90
2022-11-02T17:58:13.814Z,93.10
2022-11-02T18:03:21.701Z,93.10
2022-11-02T18:08:28.106Z,93.10
2022-11-02T18:13:33.169Z,93.00
2022-11-02T18:18:41.388Z,93.10
2022-11-02T18:23:45.663Z,92.90
2022-11-02T18:28:50.824Z,93.30
2022-11-02T18:33:56.540Z,93.10
2022-11-02T18:39:00.171Z,93.10
2022-11-02T18:44:13.520Z,92.90
2022-11-02T18:49:18.739Z,92.90
2022-11-02T18:54:22.484Z,93.10
2022-11-02T18:59:27.707Z,93.20
2022-11-02T19:04:31.451Z,93.40
2022-11-02T19:09:36.855Z,93.50
2022-11-02T19:14:43.604Z,93.50
2022-11-02T19:19:48.476Z,93.60
2022-11-02T19:24:52.431Z,93.70
2022-11-02T19:29:57.453Z,93.70
2022-11-02T19:35:01.143Z,93.80
2022-11-02T19:40:05.495Z,93.70
2022-11-02T19:45:16.652Z,93.80
2022-11-02T19:50:22.782Z,94.10
2022-11-02T19:55:29.494Z,94.00
2022-11-02T20:00:34.649Z,94.10
2022-11-02T20:05:38.326Z,94.30
2022-11-02T20:10:42.261Z,94.30
2022-11-02T20:15:47.278Z,94.60
2022-11-02T20:20:52.492Z,94.50
2022-11-02T20:26:00.777Z,94.50
2022-11-02T20:31:09.438Z,94.80
2022-11-02T20:36:13.264Z,95.00
2022-11-02T20:41:18.977Z,95.20
2022-11-02T20:46:42.224Z,95.30
2022-11-02T20:51:46.531Z,95.50
2022-11-02T20:56:50.673Z,95.60
2022-11-02T21:01:55.996Z,95.70
2022-11-02T21:06:59.804Z,95.80
2022-11-02T21:12:20.947Z,96.00
2022-11-02T21:17:27.171Z,96.00
2022-11-02T21:22:30.883Z,96.60
2022-11-02T21:27:34.540Z,96.30
2022-11-02T21:32:39.559Z,96.40
2022-11-02T21:37:43.368Z,96.50
2022-11-02T21:42:47.071Z,96.30
2022-11-02T21:47:52.494Z,96.60
2022-11-02T21:52:56.215Z,96.50
2022-11-02T21:57:59.928Z,96.80
2022-11-02T22:03:05.218Z,96.80
2022-11-02T22:08:26.318Z,96.90
2022-11-02T22:13:35.675Z,97.30
2022-11-02T22:18:40.697Z,96.80
2022-11-02T22:23:46.247Z,97.20
2022-11-02T22:28:50.999Z,97.20
2022-11-02T22:33:57.611Z,97.20
2022-11-02T22:39:02.897Z,97.20
2022-11-02T22:44:08.158Z,97.20
2022-11-02T22:49:15.328Z,97.30
2022-11-02T22:54:20.864Z,97.50
2022-11-02T22:59:24.663Z,97.40
2022-11-02T23:04:29.689Z,97.40
2022-11-02T23:09:33.333Z,97.40
2022-11-02T23:14:36.988Z,97.70
2022-11-02T23:19:41.994Z,97.60
2022-11-02T23:25:04.899Z,97.90
2022-11-02T23:30:27.068Z,98.10
2022-11-02T23:35:49.426Z,97.90
2022-11-02T23:40:54.926Z,98.00
2022-11-02T23:45:58.976Z,98.00
2022-11-02T23:51:22.038Z,98.00
2022-11-02T23:56:39.542Z,98.10
